createdAt,value
2018-07-09T04:31:35.225Z,7.37
2018-07-09T04:34:04.166Z,5.63
2018-07-09T04:36:33.056Z,3.30
2018-07-09T04:39:02.212Z,2.10
2018-07-09T04:41:31.317Z,1.83
2018-07-09T04:44:00.210Z,2.63
2018-07-09T04:46:29.100Z,3.33
2018-07-09T04:48:58.028Z,1.87
2018-07-09T04:51:26.923Z,2.20
2018-07-09T04:53:55.824Z,2.47
2018-07-09T04:56:24.984Z,2.20
2018-07-09T04:58:53.804Z,2.43
2018-07-09T05:01:22.703Z,2.30
2018-07-09T05:03:51.611Z,1.87
2018-07-09T05:06:21.503Z,2.77
2018-07-09T05:08:50.424Z,2.23
2018-07-09T05:11:19.319Z,1.93
2018-07-09T05:13:48.260Z,1.90
2018-07-09T05:16:17.148Z,2.23
2018-07-09T05:18:46.062Z,1.43
2018-07-09T05:21:14.972Z,1.80
2018-07-09T05:23:43.907Z,1.30
2018-07-09T05:26:12.918Z,1.57
2018-07-09T05:28:41.795Z,1.67
2018-07-09T05:31:10.703Z,2.20
2018-07-09T05:33:39.636Z,1.93
2018-07-09T05:36:08.548Z,1.70
2018-07-09T05:38:37.441Z,1.60
2018-07-09T05:41:06.361Z,1.40
2018-07-09T05:43:35.919Z,1.40
2018-07-09T05:46:05.101Z,1.77
2018-07-09T05:48:34.356Z,1.50
2018-07-09T05:51:03.256Z,1.70
2018-07-09T05:53:32.191Z,1.50
2018-07-09T05:56:01.113Z,1.60
2018-07-09T05:58:30.027Z,1.63
2018-07-09T06:00:58.940Z,1.50
2018-07-09T06:03:27.912Z,1.47
2018-07-09T06:05:56.906Z,1.83
2018-07-09T06:08:25.788Z,1.47
2018-07-09T06:10:54.705Z,1.70
2018-07-09T06:13:23.596Z,1.80
2018-07-09T06:15:52.545Z,1.57
2018-07-09T06:18:21.467Z,1.77
2018-07-09T06:20:50.694Z,1.50
2018-07-09T06:23:19.747Z,1.83
2018-07-09T06:25:48.642Z,1.90
2018-07-09T06:28:17.560Z,1.80
2018-07-09T15:00:17.653Z,2.20
2018-07-09T15:02:47.124Z,2.40
2018-07-09T15:05:15.982Z,2.50
2018-07-09T15:07:44.908Z,2.50
2018-07-09T15:10:13.813Z,1.70
2018-07-09T15:12:42.704Z,2.53
2018-07-09T15:15:11.627Z,1.60
2018-07-09T15:17:40.390Z,1.60
2018-07-09T15:20:09.128Z,2.03
2018-07-09T15:22:38.089Z,1.63
2018-07-09T15:25:07.006Z,1.80
2018-07-09T15:27:35.922Z,2.07
2018-07-09T15:30:04.823Z,1.53
2018-07-09T15:32:33.703Z,1.50
2018-07-09T15:35:02.624Z,1.87
2018-07-09T15:37:31.561Z,2.73
2018-07-09T15:40:00.463Z,1.60
2018-07-09T15:42:29.608Z,1.77
2018-07-09T15:44:58.597Z,1.60
2018-07-09T15:47:27.821Z,1.70
2018-07-09T15:49:57.505Z,1.90
2018-07-09T15:52:26.390Z,1.77
2018-07-09T15:54:58.790Z,2.30
2018-07-09T15:57:30.640Z,2.60
2018-07-09T15:59:59.674Z,1.67
2018-07-09T16:02:28.476Z,1.87
2018-07-09T16:04:57.367Z,1.87
2018-07-09T16:07:26.282Z,2.17
2018-07-09T16:09:55.164Z,1.60
2018-07-09T16:12:24.183Z,2.43
2018-07-09T16:14:53.069Z,1.80
2018-07-09T16:17:22.062Z,2.40
2018-07-09T16:19:50.908Z,1.83
2018-07-09T16:22:19.828Z,2.50
2018-07-09T16:24:48.740Z,2.33
2018-07-09T16:27:17.697Z,2.23
2018-07-09T16:29:46.616Z,2.40
2018-07-09T16:32:15.475Z,2.10
2018-07-09T16:34:44.501Z,2.10
2018-07-09T16:37:13.351Z,2.07
2018-07-09T16:39:42.285Z,1.70
2018-07-09T16:42:11.138Z,1.80
2018-07-09T16:44:40.166Z,1.73
2018-07-09T16:47:10.334Z,2.20
2018-07-09T16:49:39.215Z,1.73
2018-07-09T16:52:08.168Z,1.80
2018-07-09T16:54:37.060Z,1.77
2018-07-09T16:57:06.128Z,2.23
2018-07-09T16:59:35.024Z,1.50
2018-07-09T17:02:04.016Z,1.97
2018-07-09T17:04:33.151Z,1.70
2018-07-09T17:07:02.097Z,1.77
2018-07-09T17:09:31.114Z,2.07
2018-07-09T17:12:00.028Z,1.60
2018-07-09T17:14:30.232Z,2.30
2018-07-09T17:16:59.106Z,1.70
2018-07-09T17:19:28.114Z,1.80
2018-07-09T17:21:56.964Z,1.70
2018-07-09T17:24:25.859Z,1.80
2018-07-09T17:26:54.975Z,1.97
2018-07-09T17:29:23.879Z,1.57
2018-07-09T17:31:52.768Z,1.60
2018-07-09T17:34:22.695Z,2.03
2018-07-09T17:36:51.680Z,1.90
2018-07-09T17:39:20.528Z,1.63
2018-07-09T17:41:49.423Z,1.90
2018-07-09T17:44:18.324Z,2.00
2018-07-09T17:46:47.232Z,1.70
2018-07-09T17:49:16.288Z,1.40
2018-07-09T17:51:45.186Z,1.80
2018-07-09T17:54:14.080Z,2.37
2018-07-09T17:56:42.987Z,1.87
2018-07-09T17:59:11.943Z,1.93
2018-07-09T18:01:41.860Z,1.80
2018-07-09T18:04:10.739Z,2.07
2018-07-09T18:06:39.693Z,1.83
2018-07-09T18:09:09.292Z,2.00
2018-07-09T18:11:39.041Z,1.80
2018-07-09T18:14:08.040Z,1.73
2018-07-09T18:16:36.864Z,1.73
2018-07-09T18:19:05.836Z,2.20
2018-07-09T18:21:34.710Z,2.00
2018-07-09T18:24:03.603Z,2.07
2018-07-09T18:26:32.759Z,2.30
2018-07-09T18:29:01.958Z,2.33
2018-07-09T18:31:30.871Z,2.50
2018-07-09T18:34:00.250Z,2.00
2018-07-09T18:36:29.141Z,2.20
2018-07-09T18:38:58.030Z,2.43
2018-07-09T18:41:26.923Z,1.80
2018-07-09T18:43:55.827Z,2.23
2018-07-09T18:46:24.710Z,2.23
2018-07-09T18:48:53.631Z,2.50
2018-07-09T18:51:22.531Z,2.40
2018-07-09T18:53:51.421Z,2.30
2018-07-09T18:56:20.340Z,2.20
2018-07-09T18:58:49.255Z,1.83
2018-07-09T19:01:18.208Z,2.20
2018-07-09T19:03:47.118Z,2.17
2018-07-09T19:06:43.323Z,2.07
2018-07-09T19:09:12.257Z,2.40
2018-07-09T19:11:41.819Z,2.00
2018-07-09T19:14:11.593Z,2.27
2018-07-09T19:16:52.502Z,2.77
2018-07-09T19:19:33.576Z,2.20
2018-07-09T19:22:02.956Z,2.23
2018-07-09T19:24:31.360Z,2.80
2018-07-09T19:27:00.241Z,3.17
2018-07-09T19:29:28.327Z,2.33
2018-07-09T19:31:56.257Z,2.90
2018-07-09T19:34:24.208Z,2.63
2018-07-09T19:36:52.274Z,2.90
2018-07-09T19:39:20.080Z,3.17
2018-07-09T19:41:48.057Z,2.30
2018-07-09T19:44:15.990Z,2.60
2018-07-09T19:46:43.937Z,2.70
2018-07-09T19:49:11.859Z,2.47
2018-07-09T19:51:39.804Z,2.70
2018-07-09T19:54:07.846Z,2.53
2018-07-09T19:56:35.813Z,2.20
2018-07-09T19:59:03.692Z,2.33
2018-07-09T20:01:31.852Z,2.73
2018-07-09T20:03:59.788Z,2.63
2018-07-09T20:06:27.789Z,3.10
2018-07-09T20:09:01.075Z,2.70
2018-07-09T20:11:34.495Z,2.63
2018-07-09T20:14:07.769Z,2.77
2018-07-09T20:16:41.155Z,2.53
2018-07-09T20:19:09.456Z,2.63
2018-07-09T20:21:37.552Z,2.90
2018-07-09T20:24:05.788Z,2.30
2018-07-09T20:26:33.804Z,2.43
2018-07-09T20:29:01.735Z,2.67
2018-07-09T20:31:29.659Z,3.50
2018-07-09T20:33:57.588Z,2.83
2018-07-09T20:36:25.533Z,2.20
2018-07-09T20:38:53.803Z,2.20
2018-07-09T20:41:21.773Z,2.67
2018-07-09T20:43:49.849Z,2.40
2018-07-09T20:46:17.792Z,2.13
2018-07-09T20:48:46.017Z,2.10
2018-07-09T20:51:14.177Z,2.50
2018-07-09T20:53:42.153Z,2.03
2018-07-09T20:56:10.088Z,2.10
2018-07-09T20:58:38.007Z,1.90
2018-07-09T21:01:06.325Z,2.17
2018-07-09T21:03:34.308Z,2.60
2018-07-09T21:06:02.281Z,2.40
2018-07-09T21:08:30.229Z,1.87
2018-07-09T21:10:58.323Z,4.07
2018-07-09T21:13:30.044Z,3.60
2018-07-09T21:15:58.211Z,1.83
2018-07-09T21:18:26.583Z,2.30
2018-07-09T21:20:54.722Z,3.10
2018-07-09T21:23:22.663Z,2.70
2018-07-09T21:25:50.587Z,2.07
2018-07-09T21:28:18.523Z,2.20
2018-07-09T21:30:46.452Z,2.60
2018-07-09T21:33:14.403Z,2.10
2018-07-09T21:35:42.403Z,2.63
2018-07-09T21:38:10.377Z,1.83
2018-07-09T21:40:38.303Z,2.10
2018-07-09T21:43:06.392Z,1.90
2018-07-09T21:45:34.525Z,2.47
2018-07-09T21:48:10.564Z,2.13
2018-07-09T21:50:30.418Z,2.10
2018-07-09T21:52:59.425Z,2.37
2018-07-09T21:55:27.283Z,2.20
2018-07-09T21:57:55.223Z,2.07
2018-07-09T22:00:23.141Z,2.00
2018-07-09T22:02:51.132Z,2.30
2018-07-09T22:05:19.072Z,1.80
2018-07-09T22:07:47.324Z,2.37
2018-07-09T22:10:15.093Z,2.00
2018-07-09T22:12:43.007Z,2.30
2018-07-09T22:15:11.023Z,1.80
2018-07-09T22:17:39.402Z,2.00
2018-07-09T22:20:07.371Z,2.20
2018-07-09T22:22:35.441Z,1.90
2018-07-09T22:25:03.868Z,2.20
2018-07-09T22:27:32.248Z,2.07
2018-07-09T22:30:00.216Z,2.07
2018-07-09T22:32:29.295Z,1.87
2018-07-09T22:34:58.354Z,2.20
2018-07-09T22:37:27.223Z,2.20
2018-07-09T22:40:02.747Z,2.20
2018-07-09T22:42:31.596Z,1.80
2018-07-09T22:45:00.554Z,2.93
